Ship Status Report: callsign BATFR13

sailwx.info

Track history (hours):
 
Tides and Currents Weather Stations Pressure Air Temp Water Temp Dewpoint Dewpoint Depression Visibility Wind Speed Wind Dir Waves Ship Positions

Callsign BATFR13 (name unknown)

Last reported at 2016-Dec-05 11:00 UTC. Time now 2016-Dec-05 12:35 UTC.
Position N 17°48' W 076°06'.

Wind from 080 at 16 knots

Barometer 1013.6 mb
Air temperature 27.2 ° C

Date/timePositionNaut miles runAvg speedWind from/ knotsBaromVisibWave heightAir tempDewpointWater temp
2016-Dec-05 11:00N 17°48' W 076°06'1717.1 080 / 161013.6 27.2
2016-Dec-05 10:00N 17°48' W 076°24'1818.2 080 / 171012.9 26.7
2016-Dec-05 09:00N 17°54' W 076°42'8 8.3 200 / 31013.0 26.9
2016-Dec-05 08:00N 18°00' W 076°48'0 0.0 1013.1 25.0
2016-Dec-04 22:00N 18°00' W 076°48'6 6.0 130 / 171012.7 29.2
2016-Dec-04 21:00N 17°54' W 076°48'1313.3 110 / 141012.6 29.2
2016-Dec-04 20:00N 17°42' W 076°42'1918.9 090 / 221012.5 28.0
2016-Dec-04 19:00N 17°24' W 076°48'2121.3 110 / 221012.7 28.5
2016-Dec-04 18:00N 17°06' W 077°00'2121.0 110 / 261012.610.8 28.4
2016-Dec-04 17:00N 16°54' W 077°18'2121.4 110 / 251013.2 28.4
2016-Dec-04 16:00N 16°36' W 077°30'2121.4 110 / 271013.6 28.5
2016-Dec-04 15:00N 16°18' W 077°42'1716.6 110 / 301013.3 28.7
2016-Dec-04 14:00N 16°06' W 077°54'4321.4 110 / 311013.0 28.5
2016-Dec-04 12:00N 15°30' W 078°18'2121.4 110 / 251011.5 5.4 28.4
2016-Dec-04 11:00N 15°12' W 078°30'3819.0 110 / 261010.6 28.2
2016-Dec-04 09:00N 14°42' W 078°54'2121.4 110 / 271010.3 5.4 25.4
2016-Dec-04 08:00N 14°24' W 079°06'2121.4 120 / 201009.6 28.0
2016-Dec-04 07:00N 14°06' W 079°18'2121.4 120 / 211009.7 27.9
2016-Dec-04 06:00N 13°48' W 079°30'2525.1 120 / 171010.610.8 27.9
2016-Dec-04 05:00N 13°30' W 079°48'2121.5 120 / 161010.9 27.9
2016-Dec-04 04:00N 13°12' W 080°00'2121.2 130 / 111011.5 27.9
2016-Dec-04 03:00N 13°00' W 080°18'2121.5 120 / 111011.610.8 27.7
2016-Dec-04 02:00N 12°42' W 080°30'2525.2 130 / 121011.3 27.7
2016-Dec-04 01:00N 12°24' W 080°48'2121.5 130 / 101010.8 27.7
2016-Dec-04 00:00N 12°06' W 081°00'2121.3 110 / 81010.210.8 27.7
2016-Dec-03 23:00N 11°54' W 081°18'2121.5 140 / 81009.3 27.5
2016-Dec-03 22:00N 11°36' W 081°30'1716.8 100 / 51008.9 28.4
2016-Dec-03 21:00N 11°24' W 081°42'2525.2 140 / 41009.210.8 28.5
2016-Dec-03 20:00N 11°06' W 082°00'2221.5 140 / 51009.5 28.4
2016-Dec-03 19:00N 10°48' W 082°12'2121.4 120 / 61010.8 28.2
2016-Dec-03 18:00N 10°36' W 082°30'2221.5 100 / 61011.810.8 28.2
2016-Dec-03 17:00N 10°18' W 082°42'1716.8 140 / 31012.1 27.7
2016-Dec-03 16:00N 10°06' W 082°54'8 0.3 060 / 11012.7 27.5
2016-Dec-02 11:00N 10°00' W 083°00'   280 / 31012.2 23.9
2016-Nov-29 21:00N 10°06' W 083°00'1313.4 100 / 41007.510.8 28.2
2016-Nov-29 20:00N 10°18' W 082°54'1918.9 140 / 31008.0 28.0
2016-Nov-29 19:00N 10°36' W 082°48'1212.0 210 / 41008.6 27.7
2016-Nov-29 18:00N 10°48' W 082°48'1313.4 160 / 41009.510.8 27.9
2016-Nov-29 17:00N 11°00' W 082°42'1918.9 100 / 81010.6 28.5
2016-Nov-29 16:00N 11°18' W 082°36'1212.0 080 / 101011.3 28.0
2016-Nov-29 15:00N 11°30' W 082°36'1918.9 080 / 91011.310.8 27.9
2016-Nov-29 14:00N 11°48' W 082°30'3115.3 070 / 91010.8 27.5
2016-Nov-29 12:00N 12°18' W 082°24'1313.4 070 / 131009.6 5.4 27.5
2016-Nov-29 11:00N 12°30' W 082°18'3216.1 070 / 131009.1 27.2
2016-Nov-29 09:00N 13°00' W 082°06'1918.9 060 / 131008.510.8 27.4
2016-Nov-29 08:00N 13°18' W 082°00'1313.3 070 / 101008.7 27.2
2016-Nov-29 07:00N 13°30' W 081°54'1313.3 070 / 121009.2 27.4
2016-Nov-29 06:00N 13°42' W 081°48'1918.9 070 / 101009.9 5.4 27.4
2016-Nov-29 05:00N 14°00' W 081°42'1212.0 040 / 91010.5 27.4
2016-Nov-29 04:00N 14°12' W 081°42'1313.3 040 / 91011.1 27.5
2016-Nov-29 03:00N 14°24' W 081°36'1918.9 030 / 111011.2 5.4 27.4
2016-Nov-29 02:00N 14°42' W 081°30'1716.7 030 / 121011.0 27.4
2016-Nov-29 01:00N 14°54' W 081°18'1313.1 050 / 111010.4 27.7
2016-Nov-29 00:00N 15°00' W 081°06'1716.7 060 / 121009.8 5.4 27.4
2016-Nov-28 23:00N 15°12' W 080°54'1716.7 050 / 91009.3 27.4
2016-Nov-28 22:00N 15°24' W 080°42'1818.0 040 / 111009.0 27.7
2016-Nov-28 21:00N 15°42' W 080°42'1212.0 030 / 111008.910.8 27.9
2016-Nov-28 20:00N 15°54' W 080°42'1918.9 040 / 101009.1 27.9
2016-Nov-28 19:00N 16°12' W 080°48'1313.3 050 / 101009.4 27.4
2016-Nov-28 18:00N 16°24' W 080°54'1313.3 040 / 111010.3 5.4 27.4
2016-Nov-28 17:00N 16°36' W 081°00'1313.0 040 / 121011.5 27.4
2016-Nov-28 16:00N 16°42' W 081°12'1313.0 070 / 141011.8 27.4
2016-Nov-28 15:00N 16°48' W 081°24'1717.2 080 / 161011.9 5.4 27.4
2016-Nov-28 14:00N 16°48' W 081°42'2914.7 070 / 161011.8 27.4
2016-Nov-28 12:00N 16°54' W 082°12'1111.5 080 / 161011.3 5.4 27.2
2016-Nov-28 11:00N 16°54' W 082°24'1818.2 090 / 151011.0 27.2
2016-Nov-28 10:00N 16°48' W 082°42'1111.5 070 / 161010.6 26.9
2016-Nov-28 09:00N 16°48' W 082°54'1717.2 070 / 181010.610.8 26.9
2016-Nov-28 08:00N 16°48' W 083°12'1111.5 070 / 161010.9 26.9
2016-Nov-28 07:00N 16°48' W 083°24'1717.2 080 / 141011.6 27.0
2016-Nov-28 06:00N 16°48' W 083°42'1111.5 050 / 141012.010.8 26.4
2016-Nov-28 05:00N 16°48' W 083°54'1717.2 040 / 141012.7 26.7
2016-Nov-28 04:00N 16°48' W 084°12'1111.5 040 / 141013.1 26.9
2016-Nov-28 03:00N 16°48' W 084°24'1111.5 050 / 161013.2 26.9
2016-Nov-28 02:00N 16°48' W 084°36'1717.2 050 / 171012.9 27.0
2016-Nov-28 01:00N 16°48' W 084°54'1111.5 050 / 171012.6 27.2
2016-Nov-28 00:00N 16°48' W 085°06'1111.5 050 / 181012.3 5.4 27.2
2016-Nov-27 23:00N 16°48' W 085°18'1111.5 050 / 171012.1 27.2
2016-Nov-27 22:00N 16°48' W 085°30'1111.5 060 / 91012.3 27.4
2016-Nov-27 21:00N 16°48' W 085°42'1818.3 060 / 111012.210.8 27.5
2016-Nov-27 20:00N 16°42' W 086°00'1111.5 070 / 111012.8 27.4
2016-Nov-27 19:00N 16°42' W 086°12'1313.0 280 / 31013.6 25.9
2016-Nov-27 18:00N 16°36' W 086°24'1313.0 1014.7 5.4 26.2
2016-Nov-27 17:00N 16°30' W 086°36'2914.7 360 / 101015.3 26.4
2016-Nov-27 15:00N 16°24' W 087°06'1313.0 350 / 91016.310.8 27.0
2016-Nov-27 14:00N 16°18' W 087°18'1313.0 360 / 81016.0 26.5
2016-Nov-27 13:00N 16°12' W 087°30'1313.0 340 / 111015.7 26.4
2016-Nov-27 12:00N 16°06' W 087°42'1313.0 320 / 141015.7 5.4 24.4
2016-Nov-27 11:00N 16°00' W 087°54'1313.3 340 / 121014.9 24.7
2016-Nov-27 10:00N 15°48' W 088°00'0 0.0 210 / 51015.2 23.2
2016-Nov-26 22:00N 15°48' W 088°00'8 8.3 290 / 111014.9 26.2
2016-Nov-26 21:00N 15°54' W 088°06'1818.3 260 / 131015.2 5.4 25.2
2016-Nov-26 20:00N 16°00' W 088°24'1818.3 240 / 121015.9 24.7
2016-Nov-26 19:00N 15°54' W 088°42'1313.3 300 / 101016.0 23.9
2016-Nov-26 18:00N 15°42' W 088°36'6 0.3 290 / 81017.1 23.9
2016-Nov-25 21:00N 15°48' W 088°36'0 0.0 270 / 181013.9 22.9
2016-Nov-25 20:00N 15°48' W 088°36'   1014.5 23.7
Track history (hours):
 
Tides and Currents Weather Stations Pressure Air Temp Water Temp Dewpoint Dewpoint Depression Visibility Wind Speed Wind Dir Waves Ship Positions

Callsign BATFR13 (name unknown)

Last reported at 2016-Dec-05 11:00 UTC. Time now 2016-Dec-05 12:35 UTC.
Position N 17°48' W 076°06'.

Wind from 080 at 16 knots

Barometer 1013.6 mb
Air temperature 27.2 ° C

Date/timePositionNaut miles runAvg speedWind from/ knotsBaromVisibWave heightAir tempDewpointWater temp
2016-Dec-05 11:00N 17°48' W 076°06'1717.1 080 / 161013.6 27.2
2016-Dec-05 10:00N 17°48' W 076°24'1818.2 080 / 171012.9 26.7
2016-Dec-05 09:00N 17°54' W 076°42'8 8.3 200 / 31013.0 26.9
2016-Dec-05 08:00N 18°00' W 076°48'0 0.0 1013.1 25.0
2016-Dec-04 22:00N 18°00' W 076°48'6 6.0 130 / 171012.7 29.2
2016-Dec-04 21:00N 17°54' W 076°48'1313.3 110 / 141012.6 29.2
2016-Dec-04 20:00N 17°42' W 076°42'1918.9 090 / 221012.5 28.0
2016-Dec-04 19:00N 17°24' W 076°48'2121.3 110 / 221012.7 28.5
2016-Dec-04 18:00N 17°06' W 077°00'2121.0 110 / 261012.610.8 28.4
2016-Dec-04 17:00N 16°54' W 077°18'2121.4 110 / 251013.2 28.4
2016-Dec-04 16:00N 16°36' W 077°30'2121.4 110 / 271013.6 28.5
2016-Dec-04 15:00N 16°18' W 077°42'1716.6 110 / 301013.3 28.7
2016-Dec-04 14:00N 16°06' W 077°54'4321.4 110 / 311013.0 28.5
2016-Dec-04 12:00N 15°30' W 078°18'2121.4 110 / 251011.5 5.4 28.4
2016-Dec-04 11:00N 15°12' W 078°30'3819.0 110 / 261010.6 28.2
2016-Dec-04 09:00N 14°42' W 078°54'2121.4 110 / 271010.3 5.4 25.4
2016-Dec-04 08:00N 14°24' W 079°06'2121.4 120 / 201009.6 28.0
2016-Dec-04 07:00N 14°06' W 079°18'2121.4 120 / 211009.7 27.9
2016-Dec-04 06:00N 13°48' W 079°30'2525.1 120 / 171010.610.8 27.9
2016-Dec-04 05:00N 13°30' W 079°48'2121.5 120 / 161010.9 27.9
2016-Dec-04 04:00N 13°12' W 080°00'2121.2 130 / 111011.5 27.9
2016-Dec-04 03:00N 13°00' W 080°18'2121.5 120 / 111011.610.8 27.7
2016-Dec-04 02:00N 12°42' W 080°30'2525.2 130 / 121011.3 27.7
2016-Dec-04 01:00N 12°24' W 080°48'2121.5 130 / 101010.8 27.7
2016-Dec-04 00:00N 12°06' W 081°00'2121.3 110 / 81010.210.8 27.7
2016-Dec-03 23:00N 11°54' W 081°18'2121.5 140 / 81009.3 27.5
2016-Dec-03 22:00N 11°36' W 081°30'1716.8 100 / 51008.9 28.4
2016-Dec-03 21:00N 11°24' W 081°42'2525.2 140 / 41009.210.8 28.5
2016-Dec-03 20:00N 11°06' W 082°00'2221.5 140 / 51009.5 28.4
2016-Dec-03 19:00N 10°48' W 082°12'2121.4 120 / 61010.8 28.2
2016-Dec-03 18:00N 10°36' W 082°30'2221.5 100 / 61011.810.8 28.2
2016-Dec-03 17:00N 10°18' W 082°42'1716.8 140 / 31012.1 27.7
2016-Dec-03 16:00N 10°06' W 082°54'8 0.3 060 / 11012.7 27.5
2016-Dec-02 11:00N 10°00' W 083°00'   280 / 31012.2 23.9
2016-Nov-29 21:00N 10°06' W 083°00'1313.4 100 / 41007.510.8 28.2
2016-Nov-29 20:00N 10°18' W 082°54'1918.9 140 / 31008.0 28.0
2016-Nov-29 19:00N 10°36' W 082°48'1212.0 210 / 41008.6 27.7
2016-Nov-29 18:00N 10°48' W 082°48'1313.4 160 / 41009.510.8 27.9
2016-Nov-29 17:00N 11°00' W 082°42'1918.9 100 / 81010.6 28.5
2016-Nov-29 16:00N 11°18' W 082°36'1212.0 080 / 101011.3 28.0
2016-Nov-29 15:00N 11°30' W 082°36'1918.9 080 / 91011.310.8 27.9
2016-Nov-29 14:00N 11°48' W 082°30'3115.3 070 / 91010.8 27.5
2016-Nov-29 12:00N 12°18' W 082°24'1313.4 070 / 131009.6 5.4 27.5
2016-Nov-29 11:00N 12°30' W 082°18'3216.1 070 / 131009.1 27.2
2016-Nov-29 09:00N 13°00' W 082°06'1918.9 060 / 131008.510.8 27.4
2016-Nov-29 08:00N 13°18' W 082°00'1313.3 070 / 101008.7 27.2
2016-Nov-29 07:00N 13°30' W 081°54'1313.3 070 / 121009.2 27.4
2016-Nov-29 06:00N 13°42' W 081°48'1918.9 070 / 101009.9 5.4 27.4
2016-Nov-29 05:00N 14°00' W 081°42'1212.0 040 / 91010.5 27.4
2016-Nov-29 04:00N 14°12' W 081°42'1313.3 040 / 91011.1 27.5
2016-Nov-29 03:00N 14°24' W 081°36'1918.9 030 / 111011.2 5.4 27.4
2016-Nov-29 02:00N 14°42' W 081°30'1716.7 030 / 121011.0 27.4
2016-Nov-29 01:00N 14°54' W 081°18'1313.1 050 / 111010.4 27.7
2016-Nov-29 00:00N 15°00' W 081°06'1716.7 060 / 121009.8 5.4 27.4
2016-Nov-28 23:00N 15°12' W 080°54'1716.7 050 / 91009.3 27.4
2016-Nov-28 22:00N 15°24' W 080°42'1818.0 040 / 111009.0 27.7
2016-Nov-28 21:00N 15°42' W 080°42'1212.0 030 / 111008.910.8 27.9
2016-Nov-28 20:00N 15°54' W 080°42'1918.9 040 / 101009.1 27.9
2016-Nov-28 19:00N 16°12' W 080°48'1313.3 050 / 101009.4 27.4
2016-Nov-28 18:00N 16°24' W 080°54'1313.3 040 / 111010.3 5.4 27.4
2016-Nov-28 17:00N 16°36' W 081°00'1313.0 040 / 121011.5 27.4
2016-Nov-28 16:00N 16°42' W 081°12'1313.0 070 / 141011.8 27.4
2016-Nov-28 15:00N 16°48' W 081°24'1717.2 080 / 161011.9 5.4 27.4
2016-Nov-28 14:00N 16°48' W 081°42'2914.7 070 / 161011.8 27.4
2016-Nov-28 12:00N 16°54' W 082°12'1111.5 080 / 161011.3 5.4 27.2
2016-Nov-28 11:00N 16°54' W 082°24'1818.2 090 / 151011.0 27.2
2016-Nov-28 10:00N 16°48' W 082°42'1111.5 070 / 161010.6 26.9
2016-Nov-28 09:00N 16°48' W 082°54'1717.2 070 / 181010.610.8 26.9
2016-Nov-28 08:00N 16°48' W 083°12'1111.5 070 / 161010.9 26.9
2016-Nov-28 07:00N 16°48' W 083°24'1717.2 080 / 141011.6 27.0
2016-Nov-28 06:00N 16°48' W 083°42'1111.5 050 / 141012.010.8 26.4
2016-Nov-28 05:00N 16°48' W 083°54'1717.2 040 / 141012.7 26.7
2016-Nov-28 04:00N 16°48' W 084°12'1111.5 040 / 141013.1 26.9
2016-Nov-28 03:00N 16°48' W 084°24'1111.5 050 / 161013.2 26.9
2016-Nov-28 02:00N 16°48' W 084°36'1717.2 050 / 171012.9 27.0
2016-Nov-28 01:00N 16°48' W 084°54'1111.5 050 / 171012.6 27.2
2016-Nov-28 00:00N 16°48' W 085°06'1111.5 050 / 181012.3 5.4 27.2
2016-Nov-27 23:00N 16°48' W 085°18'1111.5 050 / 171012.1 27.2
2016-Nov-27 22:00N 16°48' W 085°30'1111.5 060 / 91012.3 27.4
2016-Nov-27 21:00N 16°48' W 085°42'1818.3 060 / 111012.210.8 27.5
2016-Nov-27 20:00N 16°42' W 086°00'1111.5 070 / 111012.8 27.4
2016-Nov-27 19:00N 16°42' W 086°12'1313.0 280 / 31013.6 25.9
2016-Nov-27 18:00N 16°36' W 086°24'1313.0 1014.7 5.4 26.2
2016-Nov-27 17:00N 16°30' W 086°36'2914.7 360 / 101015.3 26.4
2016-Nov-27 15:00N 16°24' W 087°06'1313.0 350 / 91016.310.8 27.0
2016-Nov-27 14:00N 16°18' W 087°18'1313.0 360 / 81016.0 26.5
2016-Nov-27 13:00N 16°12' W 087°30'1313.0 340 / 111015.7 26.4
2016-Nov-27 12:00N 16°06' W 087°42'1313.0 320 / 141015.7 5.4 24.4
2016-Nov-27 11:00N 16°00' W 087°54'1313.3 340 / 121014.9 24.7
2016-Nov-27 10:00N 15°48' W 088°00'0 0.0 210 / 51015.2 23.2
2016-Nov-26 22:00N 15°48' W 088°00'8 8.3 290 / 111014.9 26.2
2016-Nov-26 21:00N 15°54' W 088°06'1818.3 260 / 131015.2 5.4 25.2
2016-Nov-26 20:00N 16°00' W 088°24'1818.3 240 / 121015.9 24.7
2016-Nov-26 19:00N 15°54' W 088°42'1313.3 300 / 101016.0 23.9
2016-Nov-26 18:00N 15°42' W 088°36'6 0.3 290 / 81017.1 23.9
2016-Nov-25 21:00N 15°48' W 088°36'0 0.0 270 / 181013.9 22.9
2016-Nov-25 20:00N 15°48' W 088°36'   1014.5 23.7

Dump ship's entire track history